createdAt,value
2019-03-27T00:00:27.354Z,4.05
2019-03-27T00:02:55.649Z,3.10
2019-03-27T00:05:24.101Z,3.08
2019-03-27T00:07:52.521Z,3.33
2019-03-27T00:10:21.203Z,3.40
2019-03-27T00:12:49.497Z,3.80
2019-03-27T00:15:18.631Z,4.30
2019-03-27T00:17:46.964Z,4.07
2019-03-27T00:20:16.502Z,3.50
2019-03-27T00:22:44.865Z,4.30
2019-03-27T00:25:13.191Z,2.90
2019-03-27T00:27:41.509Z,2.70
2019-03-27T00:30:10.781Z,3.67
2019-03-27T00:32:39.151Z,3.70
2019-03-27T00:35:09.320Z,3.27
2019-03-27T00:37:37.645Z,4.30
2019-03-27T00:40:07.277Z,3.13
2019-03-27T00:42:35.645Z,3.40
2019-03-27T00:45:08.057Z,3.20
2019-03-27T00:47:36.352Z,3.77
2019-03-27T00:50:07.567Z,3.53
2019-03-27T00:52:35.937Z,4.00
2019-03-27T00:55:05.619Z,3.77
2019-03-27T00:57:34.008Z,4.63
2019-03-27T01:00:02.418Z,4.53
2019-03-27T01:02:31.046Z,4.87
2019-03-27T01:04:59.360Z,5.03
2019-03-27T01:07:27.722Z,4.75
2019-03-27T01:09:56.100Z,5.37
2019-03-27T01:12:25.233Z,4.58
2019-03-27T01:14:53.531Z,4.67
2019-03-27T01:17:21.982Z,5.47
2019-03-27T01:19:50.307Z,6.43
2019-03-27T01:22:18.787Z,5.20
2019-03-27T01:24:47.151Z,4.97
2019-03-27T01:27:15.495Z,5.00
2019-03-27T01:29:43.800Z,5.67
2019-03-27T01:32:12.179Z,5.50
2019-03-27T01:34:40.487Z,4.53
2019-03-27T01:37:08.802Z,5.60
2019-03-27T01:39:37.485Z,6.30
2019-03-27T01:42:05.967Z,5.10
2019-03-27T01:44:34.276Z,5.42
2019-03-27T01:47:02.672Z,6.23
2019-03-27T01:49:30.983Z,5.80
2019-03-27T01:51:59.364Z,6.73
2019-03-27T01:54:27.892Z,5.63
2019-03-27T01:56:56.261Z,6.47
2019-03-27T01:59:24.625Z,6.37
2019-03-27T02:01:53.040Z,5.50
2019-03-27T02:04:21.351Z,5.97
2019-03-27T02:06:49.737Z,5.70
2019-03-27T02:09:18.040Z,6.60
2019-03-27T02:11:46.468Z,6.37
2019-03-27T02:14:14.769Z,6.27
2019-03-27T02:16:43.105Z,6.43
2019-03-27T02:19:11.486Z,9.60
2019-03-27T02:21:39.819Z,8.93
2019-03-27T02:24:08.116Z,9.23
2019-03-27T02:26:36.555Z,7.73
2019-03-27T02:29:04.857Z,8.30
2019-03-27T02:31:33.187Z,9.88
2019-03-27T02:34:02.007Z,10.20
2019-03-27T02:36:30.360Z,9.60
2019-03-27T02:38:58.768Z,10.97
2019-03-27T02:41:27.147Z,10.17
2019-03-27T02:43:55.839Z,13.20
2019-03-27T02:46:25.523Z,10.30
2019-03-27T02:48:54.414Z,11.00
2019-03-27T02:51:22.766Z,11.20
2019-03-27T02:53:51.091Z,11.77
2019-03-27T02:56:19.392Z,11.27
2019-03-27T02:58:47.802Z,10.70
2019-03-27T03:01:16.137Z,14.10
2019-03-27T03:03:44.531Z,13.75
2019-03-27T03:06:13.001Z,10.40
2019-03-27T03:08:41.309Z,14.38
2019-03-27T03:11:09.709Z,11.90
2019-03-27T03:13:38.869Z,15.72
2019-03-27T03:16:07.262Z,12.97
2019-03-27T03:18:35.580Z,13.00
2019-03-27T03:21:04.148Z,13.97
2019-03-27T03:23:32.602Z,18.20
2019-03-27T03:26:01.073Z,15.28
2019-03-27T03:28:29.768Z,14.80
2019-03-27T03:30:58.143Z,14.95
2019-03-27T03:33:26.547Z,15.60
2019-03-27T03:35:54.928Z,16.70
2019-03-27T03:38:23.256Z,16.00
2019-03-27T03:40:51.575Z,15.43
2019-03-27T03:43:20.064Z,16.40
2019-03-27T03:45:48.750Z,16.77
2019-03-27T03:48:17.102Z,18.27
2019-03-27T03:50:45.965Z,16.97
2019-03-27T03:53:14.821Z,18.73
2019-03-27T03:55:43.899Z,19.65
2019-03-27T03:58:17.174Z,17.17
2019-03-27T04:00:45.576Z,17.00
2019-03-27T04:03:14.415Z,14.37
2019-03-27T04:05:43.055Z,17.80
2019-03-27T04:08:11.419Z,16.40
2019-03-27T04:10:39.893Z,17.43
2019-03-27T04:13:08.272Z,18.07
2019-03-27T04:15:36.682Z,17.63
2019-03-27T04:18:05.068Z,18.00
2019-03-27T04:20:33.379Z,15.77
2019-03-27T04:23:01.686Z,18.33
2019-03-27T04:25:30.092Z,17.07
2019-03-27T04:27:58.766Z,17.60
2019-03-27T04:30:27.142Z,14.30
2019-03-27T04:32:55.459Z,16.60
2019-03-27T04:35:24.060Z,16.30
2019-03-27T04:37:52.502Z,17.27
2019-03-27T04:40:20.870Z,17.13
2019-03-27T04:42:49.187Z,16.60
2019-03-27T04:45:17.792Z,18.10
2019-03-27T04:47:46.586Z,19.70
2019-03-27T04:50:15.052Z,14.87
2019-03-27T04:52:43.469Z,19.30
2019-03-27T04:55:11.844Z,18.47
2019-03-27T04:57:40.185Z,17.63
2019-03-27T05:00:09.571Z,17.55
2019-03-27T05:02:37.950Z,17.03
2019-03-27T05:05:07.491Z,19.07
2019-03-27T05:07:35.894Z,16.63
2019-03-27T05:10:05.538Z,21.65
2019-03-27T05:12:33.921Z,15.27
2019-03-27T05:15:02.340Z,21.65
2019-03-27T05:17:30.678Z,18.20
2019-03-27T05:19:58.995Z,18.27
2019-03-27T05:22:27.451Z,20.07
2019-03-27T05:24:55.791Z,17.30
2019-03-27T05:27:24.109Z,19.50
2019-03-27T05:29:53.787Z,17.73
2019-03-27T05:32:22.470Z,18.90
2019-03-27T05:34:50.777Z,19.97
2019-03-27T05:37:19.152Z,20.20
2019-03-27T05:39:47.476Z,21.40
2019-03-27T05:42:15.886Z,17.53
2019-03-27T05:44:44.587Z,21.52
2019-03-27T05:47:12.903Z,21.40
2019-03-27T05:49:41.228Z,22.27
2019-03-27T05:52:09.538Z,22.67
2019-03-27T05:54:37.942Z,21.53
2019-03-27T05:57:06.324Z,21.07
2019-03-27T05:59:34.660Z,20.57
2019-03-27T06:02:02.965Z,21.95
2019-03-27T06:04:31.744Z,20.80
2019-03-27T06:07:00.054Z,21.30
2019-03-27T06:09:28.362Z,17.90
2019-03-27T06:11:56.821Z,21.53
2019-03-27T06:14:25.150Z,20.90
2019-03-27T06:16:53.477Z,19.33
2019-03-27T06:19:21.793Z,18.93
2019-03-27T06:21:50.114Z,21.13
2019-03-27T06:24:18.427Z,19.77
2019-03-27T06:26:46.766Z,21.63
2019-03-27T06:29:15.927Z,20.47
2019-03-27T06:31:44.755Z,18.00
2019-03-27T06:34:13.085Z,20.80
2019-03-27T06:36:41.388Z,21.13
2019-03-27T06:39:09.911Z,20.90
2019-03-27T06:41:38.298Z,19.40
2019-03-27T06:44:06.806Z,20.55
2019-03-27T06:46:35.108Z,18.57
2019-03-27T06:49:03.424Z,19.80
2019-03-27T06:51:39.880Z,16.30
2019-03-27T06:54:01.768Z,18.77
2019-03-27T06:56:30.107Z,21.47
2019-03-27T06:58:58.405Z,17.43
2019-03-27T07:01:26.793Z,18.53
2019-03-27T07:03:55.106Z,19.75
2019-03-27T07:06:23.415Z,20.10
2019-03-27T07:08:51.736Z,16.27
2019-03-27T07:11:20.039Z,16.90
2019-03-27T07:13:48.355Z,18.60
2019-03-27T07:16:16.664Z,19.73
2019-03-27T07:18:44.981Z,19.60
2019-03-27T07:21:13.283Z,19.10
2019-03-27T07:23:41.592Z,18.63
2019-03-27T07:26:09.923Z,19.70
2019-03-27T07:28:38.227Z,19.60
2019-03-27T07:31:06.560Z,18.00
2019-03-27T07:33:35.223Z,19.30
2019-03-27T07:36:03.553Z,17.75
2019-03-27T07:38:31.877Z,16.80
2019-03-27T07:41:00.178Z,17.27
2019-03-27T07:43:28.496Z,15.77
2019-03-27T07:45:56.877Z,19.23
2019-03-27T07:48:25.197Z,16.33
2019-03-27T07:50:53.503Z,17.50
2019-03-27T07:53:22.618Z,16.80
2019-03-27T07:55:51.183Z,17.10
2019-03-27T07:58:19.491Z,16.47
2019-03-27T08:00:47.820Z,16.73
2019-03-27T08:03:16.122Z,16.63
2019-03-27T08:05:44.517Z,19.50
2019-03-27T08:08:12.899Z,14.68
2019-03-27T08:10:41.291Z,15.78
2019-03-27T08:13:09.595Z,16.93
2019-03-27T08:15:40.685Z,17.33
2019-03-27T08:18:07.958Z,14.78
2019-03-27T08:20:36.351Z,14.80
2019-03-27T08:23:04.730Z,15.00
2019-03-27T08:25:33.055Z,19.40
2019-03-27T08:28:01.435Z,16.60
2019-03-27T08:30:30.158Z,15.00
2019-03-27T08:32:58.468Z,15.60
2019-03-27T08:35:26.780Z,16.60
2019-03-27T08:37:55.311Z,15.20
2019-03-27T08:40:23.615Z,16.37
2019-03-27T08:42:51.947Z,14.50
2019-03-27T08:45:20.328Z,14.43
2019-03-27T08:47:48.672Z,16.10
2019-03-27T08:50:17.206Z,15.37
2019-03-27T08:52:45.515Z,16.87
2019-03-27T08:55:14.099Z,13.83
2019-03-27T08:57:42.478Z,14.70
2019-03-27T09:00:13.342Z,16.27
2019-03-27T09:02:41.645Z,13.85
2019-03-27T09:05:11.297Z,14.77
2019-03-27T09:07:39.630Z,14.17
2019-03-27T09:10:09.784Z,14.70
2019-03-27T09:12:38.184Z,14.80
2019-03-27T09:15:08.807Z,13.97
2019-03-27T09:17:37.202Z,15.10
2019-03-27T09:20:07.118Z,14.60
2019-03-27T09:22:35.438Z,13.90
2019-03-27T09:25:05.708Z,14.67
2019-03-27T09:27:34.182Z,13.28
2019-03-27T09:30:02.555Z,14.67
2019-03-27T09:32:30.871Z,13.15
2019-03-27T09:34:59.270Z,13.62
2019-03-27T09:37:27.577Z,13.00
2019-03-27T09:39:55.902Z,13.40
2019-03-27T09:42:24.610Z,13.80
2019-03-27T09:44:52.922Z,13.63
2019-03-27T09:47:21.408Z,12.63
2019-03-27T09:49:50.191Z,12.40
2019-03-27T09:52:18.636Z,14.47
2019-03-27T09:54:47.014Z,14.13
2019-03-27T09:57:15.435Z,12.87
2019-03-27T09:59:43.828Z,12.60
2019-03-27T10:02:12.461Z,14.37
2019-03-27T10:04:40.832Z,14.18
2019-03-27T10:07:09.153Z,15.10
2019-03-27T10:09:37.463Z,13.70
2019-03-27T10:12:05.874Z,12.73
2019-03-27T10:14:34.212Z,11.70
2019-03-27T10:17:02.534Z,12.53
2019-03-27T10:19:30.845Z,12.73
2019-03-27T10:21:59.153Z,11.60
2019-03-27T10:24:28.004Z,14.27
2019-03-27T10:26:56.379Z,13.77
2019-03-27T10:29:24.709Z,13.43
2019-03-27T10:31:53.034Z,12.37
2019-03-27T10:34:21.358Z,10.53
2019-03-27T10:36:50.015Z,10.67
2019-03-27T10:39:18.699Z,10.07
2019-03-27T10:41:47.025Z,10.83
2019-03-27T10:44:17.522Z,12.03
2019-03-27T10:46:45.385Z,11.17
2019-03-27T10:49:13.710Z,12.90
2019-03-27T10:51:42.011Z,13.47
2019-03-27T10:54:10.389Z,11.67
2019-03-27T10:56:39.215Z,13.93
2019-03-27T10:59:07.903Z,13.45
2019-03-27T11:01:36.210Z,12.20
2019-03-27T11:04:04.603Z,13.43
2019-03-27T11:06:32.977Z,15.03
2019-03-27T11:09:01.306Z,13.60
2019-03-27T11:11:29.702Z,13.10
2019-03-27T11:13:58.025Z,12.10
2019-03-27T11:16:26.457Z,15.00
2019-03-27T11:18:54.786Z,13.40
2019-03-27T11:21:23.497Z,12.23
2019-03-27T11:23:51.760Z,10.23
2019-03-27T11:26:20.316Z,10.87
2019-03-27T11:28:48.636Z,11.73
2019-03-27T11:31:16.968Z,11.40
2019-03-27T11:33:45.275Z,12.97
2019-03-27T11:36:13.933Z,10.50
2019-03-27T11:38:42.327Z,13.45
2019-03-27T11:41:12.228Z,13.58
2019-03-27T11:43:53.863Z,14.17
2019-03-27T11:46:10.860Z,15.07
2019-03-27T11:48:39.191Z,14.63
2019-03-27T11:51:07.634Z,15.70
2019-03-27T11:53:35.963Z,17.37
2019-03-27T11:56:04.703Z,14.03
2019-03-27T11:58:33.096Z,14.97
2019-03-27T12:01:01.409Z,14.37
2019-03-27T12:03:29.707Z,15.93
2019-03-27T12:05:58.032Z,14.33
2019-03-27T12:08:26.337Z,14.70
2019-03-27T12:10:55.064Z,15.25
2019-03-27T12:13:23.364Z,16.87
2019-03-27T12:15:51.707Z,15.00
2019-03-27T12:18:20.069Z,16.50
2019-03-27T12:20:58.968Z,14.47
2019-03-27T12:23:18.910Z,15.17
2019-03-27T12:25:47.281Z,15.73
2019-03-27T12:28:15.608Z,13.48
2019-03-27T12:30:44.279Z,14.80
2019-03-27T12:33:12.598Z,15.20
2019-03-27T12:35:41.083Z,16.87
2019-03-27T12:38:09.406Z,15.30
2019-03-27T12:40:37.713Z,14.00
2019-03-27T12:43:06.097Z,15.20
2019-03-27T12:45:34.475Z,17.03
2019-03-27T12:48:02.803Z,15.57
2019-03-27T12:50:31.106Z,14.60
2019-03-27T12:52:59.411Z,13.72
2019-03-27T12:55:27.888Z,14.10
2019-03-27T12:57:56.193Z,14.73
2019-03-27T13:00:24.956Z,13.50
2019-03-27T13:02:53.322Z,13.90
2019-03-27T13:05:22.022Z,11.93
2019-03-27T13:07:50.534Z,16.33
2019-03-27T13:10:19.102Z,13.17
2019-03-27T13:12:47.475Z,14.70
2019-03-27T13:15:15.920Z,13.57
2019-03-27T13:17:44.248Z,15.00
2019-03-27T13:20:13.495Z,13.23
2019-03-27T13:22:41.825Z,14.30
2019-03-27T13:25:10.500Z,13.97
2019-03-27T13:27:40.078Z,13.33
2019-03-27T13:30:09.107Z,13.90
2019-03-27T13:32:37.718Z,13.17
2019-03-27T13:35:06.902Z,14.00
2019-03-27T13:37:35.219Z,13.67
2019-03-27T13:40:09.039Z,13.67
2019-03-27T13:42:37.415Z,14.80
2019-03-27T13:45:07.367Z,13.13
2019-03-27T13:47:36.491Z,12.20
2019-03-27T13:50:12.921Z,12.40
2019-03-27T13:52:40.952Z,12.50
2019-03-27T13:55:09.718Z,13.90
2019-03-27T13:57:38.021Z,12.90
2019-03-27T14:00:09.251Z,13.00
2019-03-27T14:02:38.040Z,12.70
2019-03-27T14:05:06.972Z,13.10
2019-03-27T14:07:35.363Z,13.43
2019-03-27T14:10:04.904Z,14.00
2019-03-27T14:12:33.349Z,10.90
2019-03-27T14:15:01.722Z,12.53
2019-03-27T14:17:30.039Z,12.90
2019-03-27T14:19:58.348Z,12.30
2019-03-27T14:22:26.670Z,11.90
2019-03-27T14:24:54.971Z,12.90
2019-03-27T14:27:23.604Z,13.03
2019-03-27T14:29:52.000Z,12.30
2019-03-27T14:32:20.312Z,13.73
2019-03-27T14:34:48.658Z,12.97
2019-03-27T14:37:17.340Z,12.10
2019-03-27T14:39:45.723Z,11.97
2019-03-27T14:42:14.120Z,16.35
2019-03-27T14:44:42.426Z,16.17
2019-03-27T14:47:11.064Z,13.77
2019-03-27T14:49:39.768Z,12.80
2019-03-27T14:52:08.760Z,13.33
2019-03-27T14:54:37.095Z,12.40
2019-03-27T14:57:05.496Z,13.43
2019-03-27T14:59:33.799Z,12.37
2019-03-27T15:02:02.271Z,13.43
2019-03-27T15:04:30.978Z,12.20
2019-03-27T15:06:59.283Z,11.97
2019-03-27T15:09:27.946Z,13.47
2019-03-27T15:11:56.245Z,13.10
2019-03-27T15:14:24.583Z,13.23
2019-03-27T15:16:52.884Z,13.20
2019-03-27T15:19:21.566Z,13.80
2019-03-27T15:21:49.937Z,13.70
2019-03-27T15:24:20.623Z,15.07
2019-03-27T15:26:48.300Z,14.47
2019-03-27T15:29:16.610Z,13.85
2019-03-27T15:31:45.076Z,12.10
2019-03-27T15:34:13.365Z,12.87
2019-03-27T15:36:42.038Z,12.23
2019-03-27T15:39:10.285Z,12.35
2019-03-27T15:41:38.596Z,13.85
2019-03-27T15:44:06.920Z,13.37
2019-03-27T15:46:35.225Z,12.40
2019-03-27T15:49:03.551Z,12.50
2019-03-27T15:51:31.861Z,14.07
2019-03-27T15:54:00.551Z,13.23
2019-03-27T15:56:29.242Z,12.77
2019-03-27T15:58:57.548Z,14.23
2019-03-27T16:01:25.885Z,13.30
2019-03-27T16:03:54.487Z,11.63
2019-03-27T16:06:22.814Z,12.67
2019-03-27T16:08:51.232Z,14.23
2019-03-27T16:11:19.548Z,14.53
2019-03-27T16:13:47.907Z,14.30
2019-03-27T16:16:16.431Z,12.67
2019-03-27T16:18:44.731Z,11.10
2019-03-27T16:21:13.058Z,12.53
2019-03-27T16:23:41.359Z,11.33
2019-03-27T16:26:09.729Z,11.93
2019-03-27T16:28:38.058Z,14.53
2019-03-27T16:31:06.434Z,14.30
2019-03-27T16:33:34.750Z,14.20
2019-03-27T16:36:03.446Z,12.10
2019-03-27T16:38:31.851Z,12.57
2019-03-27T16:41:00.525Z,12.07
2019-03-27T16:43:28.844Z,12.27
2019-03-27T16:45:57.163Z,14.20
2019-03-27T16:48:25.470Z,11.53
2019-03-27T16:50:54.738Z,13.98
2019-03-27T16:53:23.075Z,12.17
2019-03-27T16:55:51.729Z,13.90
2019-03-27T16:58:20.442Z,14.23
2019-03-27T17:00:48.827Z,13.60
2019-03-27T17:03:17.483Z,14.00
2019-03-27T17:05:53.753Z,14.10
2019-03-27T17:08:16.195Z,13.30
2019-03-27T17:10:44.491Z,11.60
2019-03-27T17:13:12.835Z,13.43
2019-03-27T17:15:41.137Z,13.70
2019-03-27T17:18:09.504Z,15.17
2019-03-27T17:20:37.904Z,14.43
2019-03-27T17:23:17.476Z,14.43
2019-03-27T17:25:36.658Z,13.10
2019-03-27T17:28:05.126Z,13.50
2019-03-27T17:30:33.454Z,13.97
2019-03-27T17:33:02.063Z,13.33
2019-03-27T17:35:30.428Z,14.87
2019-03-27T17:37:59.131Z,11.40
2019-03-27T17:40:27.507Z,14.87
2019-03-27T17:42:56.205Z,15.97
2019-03-27T17:45:24.603Z,14.07
2019-03-27T17:47:52.935Z,13.00
2019-03-27T17:50:21.325Z,15.30
2019-03-27T17:52:49.708Z,13.83
2019-03-27T17:55:18.318Z,14.78
2019-03-27T17:57:46.648Z,13.75
2019-03-27T18:00:17.623Z,14.40
2019-03-27T18:02:46.009Z,14.28
2019-03-27T18:05:14.722Z,15.10
2019-03-27T18:07:43.126Z,14.63
2019-03-27T18:10:11.673Z,14.63
2019-03-27T18:12:40.050Z,16.20
2019-03-27T18:15:09.169Z,15.72
2019-03-27T18:17:37.548Z,17.30
2019-03-27T18:20:06.273Z,15.63
2019-03-27T18:22:35.571Z,16.93
2019-03-27T18:25:05.433Z,16.70
2019-03-27T18:27:34.144Z,19.05
2019-03-27T18:30:02.839Z,15.90
2019-03-27T18:32:31.301Z,14.17
2019-03-27T18:34:59.607Z,14.40
2019-03-27T18:37:27.930Z,16.32
2019-03-27T18:39:56.416Z,13.60
2019-03-27T18:42:24.742Z,17.07
2019-03-27T18:44:53.049Z,16.93
2019-03-27T18:47:21.348Z,17.20
2019-03-27T18:49:49.675Z,14.90
2019-03-27T18:52:17.991Z,15.60
2019-03-27T18:54:46.318Z,14.37
2019-03-27T18:57:15.052Z,15.87
2019-03-27T18:59:43.420Z,14.90
2019-03-27T19:02:11.726Z,17.50
2019-03-27T19:04:40.053Z,17.17
2019-03-27T19:07:08.356Z,15.77
2019-03-27T19:09:36.682Z,14.10
2019-03-27T19:12:05.149Z,15.90
2019-03-27T19:14:33.521Z,13.83
2019-03-27T19:17:02.181Z,16.67
2019-03-27T19:19:30.764Z,16.30
2019-03-27T19:21:59.106Z,16.37
2019-03-27T19:24:27.421Z,16.03
2019-03-27T19:26:55.733Z,15.60
2019-03-27T19:29:24.063Z,14.67
2019-03-27T19:31:52.428Z,14.67
2019-03-27T19:34:20.761Z,15.40
2019-03-27T19:36:49.134Z,15.00
2019-03-27T19:39:17.508Z,14.80
2019-03-27T19:41:45.971Z,15.83
2019-03-27T19:44:14.347Z,14.47
2019-03-27T19:46:42.740Z,15.77
2019-03-27T19:49:11.265Z,15.40
2019-03-27T19:51:39.657Z,15.80
2019-03-27T19:54:08.412Z,15.20
2019-03-27T19:56:36.915Z,13.93
2019-03-27T19:59:05.310Z,14.40
2019-03-27T20:01:33.695Z,12.97
2019-03-27T20:04:02.021Z,15.20
2019-03-27T20:06:30.410Z,13.87
2019-03-27T20:08:58.732Z,13.75
2019-03-27T20:11:27.066Z,18.90
2019-03-27T20:13:55.725Z,14.38
2019-03-27T20:16:24.039Z,15.73
2019-03-27T20:18:52.364Z,16.50
2019-03-27T20:21:20.666Z,15.53
2019-03-27T20:23:49.145Z,15.97
2019-03-27T20:26:17.450Z,13.70
2019-03-27T20:28:45.778Z,14.90
2019-03-27T20:31:14.453Z,16.37
2019-03-27T20:33:42.762Z,16.10
2019-03-27T20:36:13.156Z,16.60
2019-03-27T20:38:41.188Z,15.77
2019-03-27T20:41:09.646Z,18.93
2019-03-27T20:43:38.020Z,17.80
2019-03-27T20:46:06.793Z,18.17
2019-03-27T20:48:36.198Z,17.65
2019-03-27T20:51:04.615Z,16.53
2019-03-27T20:53:32.924Z,16.07
2019-03-27T20:56:01.248Z,16.90
2019-03-27T20:58:29.556Z,16.10
2019-03-27T21:00:57.938Z,15.77
2019-03-27T21:03:26.269Z,16.33
2019-03-27T21:05:54.581Z,15.60
2019-03-27T21:08:22.978Z,16.90
2019-03-27T21:10:51.358Z,15.73
2019-03-27T21:13:19.688Z,14.90
2019-03-27T21:15:48.290Z,18.27
2019-03-27T21:18:16.617Z,16.53
2019-03-27T21:20:44.912Z,15.70
2019-03-27T21:23:13.258Z,14.37
2019-03-27T21:25:41.628Z,14.73
2019-03-27T21:28:09.933Z,18.27
2019-03-27T21:30:38.253Z,17.03
2019-03-27T21:33:06.590Z,14.50
2019-03-27T21:35:34.903Z,14.70
2019-03-27T21:38:03.207Z,14.83
2019-03-27T21:40:31.536Z,15.30
2019-03-27T21:42:59.911Z,15.17
2019-03-27T21:45:28.236Z,15.67
2019-03-27T21:47:56.544Z,15.75
2019-03-27T21:50:24.844Z,15.53
2019-03-27T21:53:00.342Z,13.32
2019-03-27T21:55:23.402Z,16.40
2019-03-27T21:57:51.912Z,15.17
2019-03-27T22:00:37.668Z,15.00
2019-03-27T22:03:07.411Z,13.90
2019-03-27T22:05:35.965Z,15.03
2019-03-27T22:08:04.566Z,14.43
2019-03-27T22:10:32.941Z,12.93
2019-03-27T22:13:01.249Z,13.60
2019-03-27T22:15:29.933Z,15.60
2019-03-27T22:17:58.240Z,14.20
2019-03-27T22:20:26.561Z,14.27
2019-03-27T22:22:54.873Z,14.20
2019-03-27T22:25:35.202Z,14.10
2019-03-27T22:27:53.367Z,15.40
2019-03-27T22:30:21.758Z,13.80
2019-03-27T22:32:50.346Z,11.80
2019-03-27T22:35:18.648Z,11.43
2019-03-27T22:37:47.990Z,12.53
2019-03-27T22:40:16.566Z,14.30
2019-03-27T22:42:44.922Z,13.13
2019-03-27T22:45:13.373Z,13.57
2019-03-27T22:47:41.695Z,13.57
2019-03-27T22:50:10.142Z,13.70
2019-03-27T22:52:38.465Z,14.97
2019-03-27T22:55:07.816Z,12.93
2019-03-27T22:57:36.415Z,13.40
2019-03-27T23:00:09.467Z,13.93
2019-03-27T23:02:37.837Z,13.20
2019-03-27T23:05:07.192Z,13.50
2019-03-27T23:07:35.581Z,13.30
2019-03-27T23:10:05.656Z,13.30
2019-03-27T23:12:33.961Z,13.73
2019-03-27T23:15:02.292Z,14.10
2019-03-27T23:17:30.593Z,14.43
2019-03-27T23:19:58.920Z,15.40
2019-03-27T23:22:27.229Z,14.10
2019-03-27T23:24:55.533Z,14.20
2019-03-27T23:27:23.928Z,15.10
2019-03-27T23:29:52.237Z,15.43
2019-03-27T23:32:20.558Z,14.27
2019-03-27T23:34:49.032Z,15.60
2019-03-27T23:37:17.353Z,15.17
2019-03-27T23:39:45.666Z,15.33
2019-03-27T23:42:16.290Z,15.40
2019-03-27T23:44:44.089Z,16.52
2019-03-27T23:47:12.425Z,14.60
2019-03-27T23:49:40.823Z,16.60
2019-03-27T23:52:09.128Z,16.83
2019-03-27T23:54:37.458Z,15.27
2019-03-27T23:57:07.302Z,16.10
2019-03-27T23:59:35.698Z,15.53
